createdAt,value
2023-03-02T00:03:00.822Z,-0.603027
2023-03-02T00:06:25.972Z,-0.51239
2023-03-02T00:09:51.167Z,-0.472107
2023-03-02T00:13:16.334Z,-0.401611
2023-03-02T00:16:41.478Z,-0.401611
2023-03-02T00:20:06.666Z,-0.51239
2023-03-02T00:23:31.797Z,-0.552673
2023-03-02T00:26:56.971Z,-0.51239
2023-03-02T00:30:22.173Z,-0.542603
2023-03-02T00:33:47.304Z,-0.522461
2023-03-02T00:37:12.459Z,-0.603027
2023-03-02T00:40:37.646Z,-0.733948
2023-03-02T00:44:02.818Z,-0.643311
2023-03-02T00:47:27.998Z,-0.552673
2023-03-02T00:50:53.130Z,-0.441895
2023-03-02T00:54:18.284Z,-0.341187
2023-03-02T00:57:43.444Z,-0.331116
2023-03-02T01:01:08.622Z,-0.310974
2023-03-02T01:04:33.805Z,-0.26062
2023-03-02T01:07:58.975Z,-0.26062
2023-03-02T01:11:24.200Z,-0.361328
2023-03-02T01:14:49.369Z,-0.310974
2023-03-02T01:18:14.541Z,-0.421753
2023-03-02T01:21:39.735Z,-0.431824
2023-03-02T01:25:04.920Z,-0.542603
2023-03-02T01:28:30.049Z,-0.643311
2023-03-02T01:31:55.308Z,-0.693665
2023-03-02T01:35:20.479Z,-0.643311
2023-03-02T01:38:45.618Z,-0.804443
2023-03-02T01:42:10.751Z,-0.905151
2023-03-02T01:45:35.972Z,-1.005859
2023-03-02T01:49:01.122Z,-1.156921
2023-03-02T01:52:26.274Z,-1.378479
2023-03-02T01:55:51.470Z,-1.368408
2023-03-02T01:59:16.607Z,-1.448975
2023-03-02T02:02:41.784Z,-1.338196
2023-03-02T02:06:06.942Z,-1.378479
2023-03-02T02:09:32.109Z,-1.277771
2023-03-02T02:12:57.304Z,-1.307983
2023-03-02T02:16:22.494Z,-1.408691
2023-03-02T02:19:47.587Z,-1.328125
2023-03-02T02:23:12.797Z,-1.197205
2023-03-02T02:26:37.979Z,-1.197205
2023-03-02T02:30:03.176Z,-1.066284
2023-03-02T02:33:28.305Z,-0.975647
2023-03-02T02:36:53.473Z,-0.915222
2023-03-02T02:40:18.628Z,-0.945435
2023-03-02T02:43:43.811Z,-1.005859
2023-03-02T02:47:09.034Z,-1.086426
2023-03-02T02:50:34.164Z,-1.066284
2023-03-02T02:53:59.313Z,-1.126709
2023-03-02T02:57:24.454Z,-1.156921
2023-03-02T03:00:50.392Z,-1.187134
2023-03-02T03:04:15.603Z,-1.096497
2023-03-02T03:07:40.603Z,-0.915222
2023-03-02T03:11:05.782Z,-0.804443
2023-03-02T03:14:30.940Z,-0.733948
2023-03-02T03:17:56.129Z,-0.76416
2023-03-02T03:21:21.269Z,-0.804443
2023-03-02T03:24:46.460Z,-0.975647
2023-03-02T03:28:11.595Z,-1.247559
2023-03-02T03:31:36.758Z,-1.328125
2023-03-02T03:35:01.905Z,-1.307983
2023-03-02T03:38:27.133Z,-1.307983
2023-03-02T03:41:52.253Z,-1.096497
2023-03-02T03:45:17.395Z,-0.935364
2023-03-02T03:48:42.590Z,-0.784302
2023-03-02T03:52:07.777Z,-0.653381
2023-03-02T03:55:32.933Z,-0.552673
2023-03-02T03:58:58.060Z,-0.51239
2023-03-02T04:02:23.280Z,-0.582886
2023-03-02T04:05:48.378Z,-0.754089
2023-03-02T04:09:13.567Z,-0.864868
2023-03-02T04:12:38.796Z,-1.096497
2023-03-02T04:16:03.954Z,-1.277771
2023-03-02T04:19:29.034Z,-1.398621
2023-03-02T04:22:54.190Z,-1.307983
2023-03-02T04:26:19.380Z,-1.086426
2023-03-02T04:29:44.572Z,-0.975647
2023-03-02T04:33:09.765Z,-0.834656
2023-03-02T04:36:35.338Z,-0.864868
2023-03-02T04:40:00.215Z,-1.01593
2023-03-02T04:43:25.384Z,-0.985718
2023-03-02T04:46:50.596Z,-0.824585
2023-03-02T04:50:15.764Z,-0.834656
2023-03-02T04:53:40.955Z,-0.804443
2023-03-02T04:57:06.102Z,-0.794373
2023-03-02T05:00:33.257Z,-0.905151
2023-03-02T05:03:56.459Z,-1.066284
2023-03-02T05:07:21.617Z,-1.187134
2023-03-02T05:10:46.779Z,-1.227417
2023-03-02T05:14:11.960Z,-1.247559
2023-03-02T05:17:37.128Z,-1.146851
2023-03-02T05:21:02.333Z,-1.066284
2023-03-02T05:24:27.479Z,-1.005859
2023-03-02T05:27:52.650Z,-1.01593
2023-03-02T05:31:17.920Z,-0.975647
2023-03-02T05:34:42.970Z,-1.166992
2023-03-02T05:38:08.167Z,-1.328125
2023-03-02T05:41:33.346Z,-1.277771
2023-03-02T05:44:58.518Z,-1.197205
2023-03-02T05:48:23.683Z,-1.156921
2023-03-02T05:51:48.853Z,-1.227417
2023-03-02T05:55:14.047Z,-1.2677
2023-03-02T05:58:39.213Z,-1.348267
2023-03-02T06:02:04.434Z,-1.368408
2023-03-02T06:05:29.580Z,-1.408691
2023-03-02T06:08:54.768Z,-1.297913
2023-03-02T06:12:20.006Z,-1.2677
2023-03-02T06:15:45.192Z,-1.146851
2023-03-02T06:19:10.459Z,-1.086426
2023-03-02T06:22:35.666Z,-1.01593
2023-03-02T06:26:00.866Z,-0.985718
2023-03-02T06:29:26.113Z,-0.945435
2023-03-02T06:32:51.406Z,-0.794373
2023-03-02T06:36:16.526Z,-0.693665
2023-03-02T06:39:41.601Z,-0.703735
2023-03-02T06:43:06.785Z,-0.673523
2023-03-02T06:46:32.336Z,-0.643311
2023-03-02T06:49:57.927Z,-0.723877
2023-03-02T06:53:23.086Z,-0.733948
2023-03-02T06:56:48.364Z,-0.723877
2023-03-02T07:00:13.553Z,-0.623169
2023-03-02T07:03:38.830Z,-0.462036
2023-03-02T07:07:03.901Z,-0.401611
2023-03-02T07:10:29.128Z,-0.220337
2023-03-02T07:13:54.340Z,-0.139771
2023-03-02T07:17:19.547Z,0.001221
2023-03-02T07:20:44.735Z,0.132141
2023-03-02T07:24:10.341Z,0.293274
2023-03-02T07:27:35.508Z,0.393982
2023-03-02T07:31:00.800Z,0.293274
2023-03-02T07:34:25.879Z,0.36377
2023-03-02T07:37:51.088Z,0.565186
2023-03-02T07:41:16.219Z,0.605469
2023-03-02T07:44:41.387Z,0.605469
2023-03-02T07:48:06.544Z,0.686035
2023-03-02T07:51:32.146Z,0.857239
2023-03-02T07:54:57.030Z,0.897522
2023-03-02T07:58:22.171Z,0.978088
2023-03-02T08:01:47.360Z,1.139221
2023-03-02T08:05:12.541Z,1.320496
2023-03-02T08:08:37.772Z,1.50177
2023-03-02T08:12:02.964Z,1.542053
2023-03-02T08:15:28.136Z,1.683044
2023-03-02T08:18:53.276Z,1.63269
2023-03-02T08:22:18.472Z,1.763611
2023-03-02T08:25:43.648Z,1.975098
2023-03-02T08:29:08.847Z,1.904602
2023-03-02T08:32:34.755Z,1.662903
2023-03-02T08:35:59.913Z,1.803894
2023-03-02T08:39:25.041Z,2.045593
2023-03-02T08:42:50.596Z,2.196655
2023-03-02T08:46:15.850Z,2.267151
2023-03-02T08:49:40.955Z,2.357788
2023-03-02T08:53:06.191Z,2.418213
2023-03-02T08:56:31.624Z,2.196655
2023-03-02T08:59:56.555Z,2.226868
2023-03-02T09:03:21.764Z,2.357788
2023-03-02T09:06:46.898Z,2.267151
2023-03-02T09:10:12.112Z,2.045593
2023-03-02T09:13:37.322Z,2.176514
2023-03-02T09:17:02.560Z,2.337646
2023-03-02T09:20:27.709Z,2.528992
2023-03-02T09:23:52.873Z,2.710266
2023-03-02T09:27:18.226Z,2.528992
2023-03-02T09:30:43.305Z,2.528992
2023-03-02T09:34:08.465Z,2.710266
2023-03-02T09:37:33.675Z,2.962036
2023-03-02T09:40:58.796Z,3.244019
2023-03-02T09:44:23.985Z,3.395081
2023-03-02T09:47:49.173Z,3.596497
2023-03-02T09:51:14.372Z,3.656921
2023-03-02T09:54:39.708Z,3.727417
2023-03-02T09:58:04.796Z,3.687134
2023-03-02T10:01:30.003Z,3.697205
2023-03-02T10:04:55.271Z,3.687134
2023-03-02T10:08:20.367Z,3.727417
2023-03-02T10:11:45.587Z,3.828125
2023-03-02T10:15:10.771Z,3.898621
2023-03-02T10:18:35.997Z,4.039612
2023-03-02T10:22:01.178Z,4.180603
2023-03-02T10:25:26.428Z,4.402161
2023-03-02T10:28:51.615Z,4.553223
2023-03-02T10:32:16.778Z,4.593506
2023-03-02T10:35:41.988Z,4.593506
2023-03-02T10:39:07.160Z,4.452515
2023-03-02T10:42:32.393Z,4.472656
2023-03-02T10:45:57.512Z,4.52301
2023-03-02T10:49:22.616Z,4.603577
2023-03-02T10:52:59.209Z,4.583435
2023-03-02T10:56:13.012Z,4.653931
2023-03-02T10:59:38.183Z,4.935913
2023-03-02T11:03:03.389Z,5.086975
2023-03-02T11:06:28.541Z,5.086975
2023-03-02T11:09:53.742Z,5.197754
2023-03-02T11:13:18.969Z,5.177612
2023-03-02T11:16:44.174Z,5.117188
2023-03-02T11:20:09.421Z,5.197754
2023-03-02T11:23:34.581Z,5.328674
2023-03-02T11:26:59.777Z,5.348816
2023-03-02T11:30:24.957Z,5.479736
2023-03-02T11:33:50.169Z,5.489807
2023-03-02T11:37:15.329Z,5.459595
2023-03-02T11:40:42.687Z,5.449524
2023-03-02T11:44:05.639Z,5.53009
2023-03-02T11:47:30.798Z,5.53009
2023-03-02T11:50:56.001Z,5.600586
2023-03-02T11:54:21.153Z,5.560303
2023-03-02T11:57:46.318Z,5.39917
2023-03-02T12:01:11.474Z,5.389099
2023-03-02T12:04:36.635Z,5.308533
2023-03-02T12:08:01.804Z,5.238037
2023-03-02T12:11:27.005Z,5.308533
2023-03-02T12:14:52.149Z,5.358887
2023-03-02T12:18:17.324Z,5.39917
2023-03-02T12:21:42.502Z,5.419312
2023-03-02T12:25:07.655Z,5.479736
2023-03-02T12:28:32.845Z,5.429382
2023-03-02T12:31:58.153Z,5.27832
2023-03-02T12:35:23.206Z,5.328674
2023-03-02T12:38:48.402Z,5.379028
2023-03-02T12:42:13.620Z,5.348816
2023-03-02T12:45:38.723Z,5.298462
2023-03-02T12:49:04.726Z,5.167542
2023-03-02T12:52:29.126Z,5.26825
2023-03-02T12:55:54.242Z,5.39917
2023-03-02T12:59:19.410Z,5.419312
2023-03-02T13:02:45.652Z,5.489807
2023-03-02T13:06:10.898Z,5.610657
2023-03-02T13:09:38.362Z,5.540161
2023-03-02T13:13:01.268Z,5.53009
2023-03-02T13:16:26.447Z,5.640869
2023-03-02T13:19:51.550Z,5.741577
2023-03-02T13:23:16.710Z,5.671082
2023-03-02T13:26:41.887Z,5.53009
2023-03-02T13:30:07.057Z,5.459595
2023-03-02T13:33:32.224Z,5.429382
2023-03-02T13:36:57.421Z,5.358887
2023-03-02T13:40:23.245Z,5.429382
2023-03-02T13:43:48.422Z,5.348816
2023-03-02T13:47:13.606Z,5.379028
2023-03-02T13:50:38.844Z,5.389099
2023-03-02T13:54:05.090Z,5.328674
2023-03-02T13:57:30.869Z,5.39917
2023-03-02T14:00:55.574Z,5.39917
2023-03-02T14:04:20.807Z,5.459595
2023-03-02T14:07:46.111Z,5.429382
2023-03-02T14:11:11.537Z,5.540161
2023-03-02T14:14:36.814Z,5.389099
2023-03-02T14:18:02.129Z,5.389099
2023-03-02T14:21:27.417Z,5.26825
2023-03-02T14:24:52.681Z,5.26825
2023-03-02T14:28:19.861Z,5.26825
2023-03-02T15:04:47.982Z,4.694214
2023-03-02T15:08:13.253Z,4.543152
2023-03-02T15:11:38.610Z,4.52301
2023-03-02T15:15:03.889Z,4.583435
2023-03-02T15:18:29.231Z,4.371948
2023-03-02T15:21:54.579Z,4.361877
2023-03-02T15:25:19.926Z,4.321594
2023-03-02T15:28:45.267Z,4.261169
2023-03-02T15:32:10.661Z,4.220886
2023-03-02T15:35:35.925Z,4.180603
2023-03-02T15:39:01.261Z,4.220886
2023-03-02T15:42:26.640Z,4.160461
2023-03-02T15:45:51.957Z,4.150391
2023-03-02T15:49:17.264Z,4.160461
2023-03-02T15:52:42.559Z,4.089966
2023-03-02T15:56:07.913Z,4.039612
2023-03-02T15:59:33.201Z,3.979187
2023-03-02T16:02:58.546Z,3.908691
2023-03-02T16:06:23.774Z,3.838196
2023-03-02T16:09:49.070Z,3.858337
2023-03-02T16:13:14.367Z,3.908691
2023-03-02T16:16:39.660Z,3.828125
2023-03-02T16:20:05.090Z,3.828125
2023-03-02T16:23:30.257Z,3.727417
2023-03-02T16:26:55.652Z,3.687134
2023-03-02T16:30:23.228Z,3.596497
2023-03-02T16:33:46.292Z,3.646851
2023-03-02T16:37:11.584Z,3.505859
2023-03-02T16:40:36.879Z,3.51593
2023-03-02T16:44:02.165Z,3.495789
2023-03-02T16:47:27.450Z,3.38501
2023-03-02T16:50:52.752Z,3.354797
2023-03-02T16:54:18.021Z,3.395081
2023-03-02T16:57:43.353Z,3.445435
2023-03-02T17:01:08.838Z,3.465576
2023-03-02T17:04:34.255Z,3.495789
2023-03-02T17:07:59.529Z,3.51593
2023-03-02T17:11:24.850Z,3.475647
2023-03-02T17:14:50.186Z,3.395081
2023-03-02T17:18:15.465Z,3.203735
2023-03-02T17:21:40.784Z,3.244019
2023-03-02T17:25:06.058Z,3.183594
2023-03-02T17:28:31.347Z,3.26416
2023-03-02T17:31:56.973Z,3.113098
2023-03-02T17:35:22.187Z,3.13324
2023-03-02T17:38:47.547Z,3.153381
2023-03-02T17:42:13.541Z,3.213806
2023-03-02T17:45:38.853Z,3.143311
2023-03-02T17:49:04.169Z,3.052673
2023-03-02T17:52:29.512Z,3.082886
2023-03-02T17:55:54.827Z,3.022461
2023-03-02T17:59:20.206Z,3.082886
2023-03-02T18:02:45.505Z,3.13324
2023-03-02T18:06:10.779Z,3.143311
2023-03-02T18:09:36.102Z,3.113098
2023-03-02T18:13:01.477Z,2.962036
2023-03-02T18:16:26.826Z,2.972107
2023-03-02T18:19:52.117Z,3.062744
2023-03-02T18:23:17.394Z,3.113098
2023-03-02T18:26:42.673Z,3.113098
2023-03-02T18:30:09.840Z,3.113098
2023-03-02T18:33:35.130Z,3.052673
2023-03-02T18:37:01.899Z,3.022461
2023-03-02T18:40:27.187Z,3.052673
2023-03-02T18:43:56.391Z,3.032532
2023-03-02T18:47:21.665Z,3.082886
2023-03-02T18:50:47.065Z,3.052673
2023-03-02T18:54:12.359Z,3.062744
2023-03-02T18:57:37.642Z,3.113098
2023-03-02T19:01:03.001Z,3.082886
2023-03-02T19:04:28.310Z,3.052673
2023-03-02T19:07:53.537Z,2.901611
2023-03-02T19:11:18.822Z,2.931824
2023-03-02T19:14:44.076Z,2.841187
2023-03-02T19:18:09.375Z,2.780762
2023-03-02T19:21:34.715Z,2.740479
2023-03-02T19:25:00.009Z,2.609558
2023-03-02T19:28:25.274Z,2.690125
2023-03-02T19:31:50.555Z,2.790833
2023-03-02T19:35:15.930Z,2.750549
2023-03-02T19:38:41.250Z,2.720337
2023-03-02T19:42:06.483Z,2.720337
2023-03-02T19:45:31.910Z,2.780762
2023-03-02T19:48:57.070Z,2.810974
2023-03-02T19:52:22.357Z,2.770691
2023-03-02T19:55:47.634Z,2.821045
2023-03-02T19:59:12.898Z,2.780762
2023-03-02T20:02:38.264Z,2.740479
2023-03-02T20:06:03.489Z,2.821045
2023-03-02T20:09:28.792Z,2.851257
2023-03-02T20:12:54.093Z,2.871399
2023-03-02T20:16:19.375Z,2.821045
2023-03-02T20:19:44.651Z,2.821045
2023-03-02T20:23:09.919Z,2.871399
2023-03-02T20:26:35.225Z,2.821045
2023-03-02T20:30:00.528Z,2.750549
2023-03-02T20:33:25.784Z,2.710266
2023-03-02T20:36:51.104Z,2.659912
2023-03-02T20:40:16.426Z,2.539062
2023-03-02T20:43:41.731Z,2.528992
2023-03-02T20:47:07.066Z,2.488708
2023-03-02T20:50:32.309Z,2.418213
2023-03-02T20:53:57.510Z,2.448425
2023-03-02T20:57:22.753Z,2.418213
2023-03-02T21:00:47.992Z,2.388
2023-03-02T21:04:13.221Z,2.347717
2023-03-02T21:07:38.402Z,2.277222
2023-03-02T21:11:03.628Z,2.267151
2023-03-02T21:14:28.816Z,2.247009
2023-03-02T21:17:54.067Z,2.196655
2023-03-02T21:21:21.564Z,2.116089
2023-03-02T21:24:44.572Z,2.065735
2023-03-02T21:28:09.770Z,1.975098
2023-03-02T21:31:35.015Z,1.904602
2023-03-02T21:35:00.197Z,1.723328
2023-03-02T21:38:25.425Z,1.683044
2023-03-02T21:41:50.658Z,1.602478
2023-03-02T21:45:15.872Z,1.592407
2023-03-02T21:48:41.106Z,1.652832
2023-03-02T21:52:06.327Z,1.763611
2023-03-02T21:55:31.545Z,1.763611
2023-03-02T21:58:56.756Z,1.63269
2023-03-02T22:02:21.955Z,1.693115
2023-03-02T22:05:47.174Z,1.793823
2023-03-02T22:09:12.382Z,1.582336
2023-03-02T22:12:37.634Z,1.542053
2023-03-02T22:16:02.909Z,1.582336
2023-03-02T22:19:28.053Z,1.521912
2023-03-02T22:22:53.273Z,1.652832
2023-03-02T22:26:18.490Z,1.592407
2023-03-02T22:29:43.721Z,1.471558
2023-03-02T22:33:08.935Z,1.471558
2023-03-02T22:36:34.127Z,1.471558
2023-03-02T22:39:59.367Z,1.471558
2023-03-02T22:43:24.593Z,1.62262
2023-03-02T22:46:49.901Z,1.703186
2023-03-02T22:50:14.982Z,1.683044
2023-03-02T22:53:40.215Z,1.521912
2023-03-02T22:57:05.444Z,1.471558
2023-03-02T23:00:30.650Z,1.421204
2023-03-02T23:03:55.877Z,1.471558
2023-03-02T23:07:21.059Z,1.542053
2023-03-02T23:10:46.281Z,1.63269
2023-03-02T23:14:11.545Z,1.451416
2023-03-02T23:17:36.756Z,1.552124
2023-03-02T23:21:01.987Z,1.542053
2023-03-02T23:24:27.192Z,1.552124
2023-03-02T23:27:52.388Z,1.471558
2023-03-02T23:31:17.600Z,1.542053
2023-03-02T23:34:42.812Z,1.63269
2023-03-02T23:38:08.045Z,1.63269
2023-03-02T23:41:33.225Z,1.552124
2023-03-02T23:44:58.431Z,1.37085
2023-03-02T23:48:23.639Z,1.37085
2023-03-02T23:51:48.847Z,1.360779
2023-03-02T23:55:14.097Z,1.320496
2023-03-02T23:58:39.280Z,1.320496
